createdAt,value
2023-03-28T00:01:03.539Z,15.13
2023-03-28T00:03:36.012Z,15.12
2023-03-28T00:06:06.087Z,15.10
2023-03-28T00:08:33.212Z,15.08
2023-03-28T00:11:06.818Z,15.07
2023-03-28T00:13:34.072Z,15.05
2023-03-28T00:16:10.318Z,15.03
2023-03-28T00:18:42.336Z,15.03
2023-03-28T00:21:30.762Z,15.01
2023-03-28T00:24:02.192Z,14.98
2023-03-28T00:26:32.016Z,14.96
2023-03-28T00:29:01.652Z,14.95
2023-03-28T00:31:30.019Z,14.96
2023-03-28T00:33:58.003Z,14.95
2023-03-28T00:36:29.955Z,14.93
2023-03-28T00:38:58.134Z,14.93
2023-03-28T00:41:27.420Z,14.92
2023-03-28T00:43:56.221Z,14.91
2023-03-28T00:46:52.704Z,14.89
2023-03-28T00:49:25.501Z,14.88
2023-03-28T00:52:01.472Z,14.89
2023-03-28T00:54:33.499Z,14.87
2023-03-28T00:57:03.713Z,14.86
2023-03-28T00:59:34.468Z,14.85
2023-03-28T01:02:02.078Z,14.84
2023-03-28T01:04:36.703Z,14.84
2023-03-28T01:07:05.799Z,14.82
2023-03-28T01:09:33.304Z,14.83
2023-03-28T01:12:01.052Z,14.81
2023-03-28T01:14:29.757Z,14.81
2023-03-28T01:16:58.021Z,14.80
2023-03-28T01:19:43.326Z,14.81
2023-03-28T01:22:10.198Z,14.81
2023-03-28T01:25:02.916Z,14.80
2023-03-28T01:27:32.509Z,14.80
2023-03-28T01:30:17.361Z,14.80
2023-03-28T01:33:21.386Z,14.81
2023-03-28T01:35:57.418Z,14.81
2023-03-28T01:38:33.485Z,14.80
2023-03-28T01:41:13.067Z,14.80
2023-03-28T01:43:58.386Z,14.79
2023-03-28T01:46:37.128Z,14.79
2023-03-28T01:53:07.986Z,14.79
2023-03-28T01:55:42.089Z,14.79
2023-03-28T01:58:43.702Z,14.79
2023-03-28T02:01:37.151Z,14.78
2023-03-28T02:04:20.711Z,14.78
2023-03-28T02:06:51.268Z,14.79
2023-03-28T02:09:24.188Z,14.81
2023-03-28T02:11:58.299Z,14.79
2023-03-28T02:14:28.436Z,14.79
2023-03-28T02:17:02.399Z,14.80
2023-03-28T02:19:31.535Z,14.83
2023-03-28T02:22:07.928Z,14.83
2023-03-28T02:24:34.907Z,14.82
2023-03-28T02:27:02.333Z,14.81
2023-03-28T02:29:31.010Z,14.82
2023-03-28T02:31:58.041Z,14.83
2023-03-28T02:34:25.677Z,14.82
2023-03-28T02:36:57.326Z,14.83
2023-03-28T02:39:29.661Z,14.81
2023-03-28T02:42:19.390Z,14.85
2023-03-28T02:44:52.894Z,14.85
2023-03-28T02:47:28.435Z,14.84
2023-03-28T02:50:08.620Z,14.86
2023-03-28T02:52:42.904Z,14.85
2023-03-28T02:55:29.290Z,14.85
2023-03-28T02:58:08.598Z,14.85
2023-03-28T03:00:36.992Z,14.84
2023-03-28T03:03:09.246Z,14.85
2023-03-28T03:05:36.948Z,14.87
2023-03-28T03:08:04.581Z,14.89
2023-03-28T03:10:31.741Z,14.89
2023-03-28T03:12:58.755Z,14.89
2023-03-28T03:15:26.426Z,14.92
2023-03-28T03:17:53.356Z,14.90
2023-03-28T03:20:20.460Z,14.93
2023-03-28T03:22:47.357Z,14.95
2023-03-28T03:25:14.708Z,14.95
2023-03-28T03:27:41.921Z,14.96
2023-03-28T03:30:10.416Z,14.95
2023-03-28T03:32:39.109Z,14.95
2023-03-28T03:35:07.090Z,14.95
2023-03-28T03:37:34.054Z,14.97
2023-03-28T03:40:01.145Z,14.95
2023-03-28T03:42:28.088Z,14.97
2023-03-28T03:44:55.009Z,14.97
2023-03-28T03:47:21.958Z,14.96
2023-03-28T03:49:48.883Z,14.96
2023-03-28T03:52:15.801Z,14.97
2023-03-28T03:54:42.700Z,14.99
2023-03-28T03:57:09.915Z,14.99
2023-03-28T03:59:37.460Z,15.00
2023-03-28T04:02:04.455Z,15.01
2023-03-28T04:04:31.583Z,15.00
2023-03-28T04:06:59.438Z,15.01
2023-03-28T04:09:27.709Z,15.02
2023-03-28T04:11:55.873Z,15.03
2023-03-28T04:14:23.046Z,15.03
2023-03-28T04:16:51.090Z,15.01
2023-03-28T04:19:18.699Z,15.02
2023-03-28T04:21:49.129Z,15.02
2023-03-28T04:24:16.580Z,15.03
2023-03-28T04:26:46.136Z,15.03
2023-03-28T04:29:13.804Z,15.03
2023-03-28T04:31:40.813Z,15.04
2023-03-28T04:34:08.035Z,15.04
2023-03-28T04:36:35.047Z,15.05
2023-03-28T04:39:02.963Z,15.05
2023-03-28T04:41:32.453Z,15.05
2023-03-28T04:43:59.582Z,15.06
2023-03-28T04:46:26.673Z,15.05
2023-03-28T04:48:56.809Z,15.08
2023-03-28T04:51:25.372Z,15.08
2023-03-28T04:53:52.305Z,15.12
2023-03-28T04:56:19.243Z,15.18
2023-03-28T04:58:46.304Z,15.16
2023-03-28T05:01:13.969Z,15.12
2023-03-28T05:03:41.328Z,15.12
2023-03-28T05:06:08.616Z,15.05
2023-03-28T05:08:35.568Z,15.16
2023-03-28T05:11:02.759Z,15.30
2023-03-28T05:13:30.252Z,15.41
2023-03-28T05:15:57.274Z,15.48
2023-03-28T05:18:24.234Z,15.54
2023-03-28T05:20:51.427Z,15.59
2023-03-28T05:23:18.466Z,15.62
2023-03-28T05:25:53.740Z,15.64
2023-03-28T05:28:21.641Z,15.67
2023-03-28T05:30:48.727Z,15.68
2023-03-28T05:33:16.238Z,15.53
2023-03-28T05:35:43.533Z,15.45
2023-03-28T05:38:10.577Z,15.42
2023-03-28T05:40:38.106Z,15.45
2023-03-28T05:43:05.280Z,15.53
2023-03-28T05:45:32.306Z,15.59
2023-03-28T05:47:59.766Z,15.60
2023-03-28T05:50:26.804Z,15.62
2023-03-28T05:52:53.816Z,15.64
2023-03-28T05:55:20.774Z,15.68
2023-03-28T05:57:47.750Z,15.71
2023-03-28T06:00:15.560Z,15.78
2023-03-28T06:02:43.634Z,15.81
2023-03-28T06:05:12.897Z,15.89
2023-03-28T06:07:42.868Z,15.88
2023-03-28T06:10:12.094Z,15.85
2023-03-28T06:12:39.121Z,15.87
2023-03-28T06:15:07.506Z,15.90
2023-03-28T06:17:35.021Z,15.95
2023-03-28T06:20:02.221Z,15.99
2023-03-28T06:22:29.262Z,16.01
2023-03-28T06:24:56.422Z,15.97
2023-03-28T06:27:23.440Z,15.93
2023-03-28T06:29:50.907Z,15.93
2023-03-28T06:32:19.646Z,15.93
2023-03-28T06:34:46.775Z,15.93
2023-03-28T06:37:14.196Z,15.91
2023-03-28T06:39:42.098Z,15.94
2023-03-28T06:42:09.019Z,15.98
2023-03-28T06:44:36.004Z,15.96
2023-03-28T06:47:03.224Z,15.98
2023-03-28T06:49:30.151Z,16.00
2023-03-28T06:51:57.111Z,15.97
2023-03-28T06:54:24.065Z,15.98
2023-03-28T06:56:51.033Z,16.00
2023-03-28T06:59:18.136Z,15.80
2023-03-28T07:01:45.246Z,15.45
2023-03-28T07:04:12.621Z,15.48
2023-03-28T07:06:39.772Z,15.53
2023-03-28T07:09:07.180Z,15.61
2023-03-28T07:11:34.473Z,15.66
2023-03-28T07:14:01.477Z,15.67
2023-03-28T07:16:28.674Z,15.70
2023-03-28T07:18:55.898Z,15.75
2023-03-28T07:21:22.939Z,15.70
2023-03-28T07:23:50.049Z,15.76
2023-03-28T07:26:17.455Z,15.81
2023-03-28T07:28:44.448Z,15.84
2023-03-28T07:31:12.574Z,15.86
2023-03-28T07:33:39.999Z,15.90
2023-03-28T07:36:13.576Z,15.92
2023-03-28T07:38:41.128Z,15.95
2023-03-28T07:41:08.565Z,15.96
2023-03-28T07:43:36.178Z,16.05
2023-03-28T07:46:06.900Z,16.07
2023-03-28T07:48:35.980Z,16.09
2023-03-28T07:51:04.270Z,16.09
2023-03-28T07:53:31.662Z,16.13
2023-03-28T07:55:58.910Z,16.15
2023-03-28T07:58:26.194Z,16.16
2023-03-28T08:00:53.403Z,16.19
2023-03-28T08:03:20.614Z,16.19
2023-03-28T08:05:52.266Z,16.20
2023-03-28T08:08:22.004Z,16.20
2023-03-28T08:10:52.352Z,16.16
2023-03-28T08:13:21.331Z,16.07
2023-03-28T08:15:54.870Z,16.01
2023-03-28T08:18:24.817Z,15.99
2023-03-28T08:21:02.349Z,15.94
2023-03-28T08:23:29.810Z,15.95
2023-03-28T08:26:05.259Z,15.98
2023-03-28T08:28:36.834Z,16.00
2023-03-28T08:31:14.709Z,16.01
2023-03-28T08:33:51.927Z,16.05
2023-03-28T08:36:20.481Z,16.04
2023-03-28T08:38:50.443Z,16.06
2023-03-28T08:41:26.770Z,16.08
2023-03-28T08:44:17.403Z,16.02
2023-03-28T08:46:46.826Z,15.99
2023-03-28T08:49:18.734Z,16.02
2023-03-28T08:51:53.477Z,16.08
2023-03-28T08:54:28.483Z,16.12
2023-03-28T08:57:03.066Z,16.14
2023-03-28T08:59:43.883Z,16.17
2023-03-28T09:02:19.787Z,16.14
2023-03-28T09:04:47.880Z,16.13
2023-03-28T09:07:15.033Z,16.04
2023-03-28T09:09:49.500Z,15.79
2023-03-28T09:12:27.567Z,15.78
2023-03-28T09:15:21.070Z,15.80
2023-03-28T09:18:05.275Z,15.74
2023-03-28T09:21:01.414Z,15.68
2023-03-28T09:23:53.043Z,15.59
2023-03-28T09:26:22.697Z,15.47
2023-03-28T09:29:04.980Z,15.43
2023-03-28T09:31:48.942Z,15.36
2023-03-28T09:34:28.198Z,15.34
2023-03-28T09:37:00.464Z,15.30
2023-03-28T09:39:45.967Z,15.26
2023-03-28T09:42:37.016Z,15.22
2023-03-28T09:45:11.560Z,15.19
2023-03-28T09:47:38.871Z,15.16
2023-03-28T09:50:12.742Z,15.14
2023-03-28T09:52:40.842Z,15.11
2023-03-28T09:55:17.532Z,15.07
2023-03-28T09:58:01.871Z,15.05
2023-03-28T10:00:30.098Z,15.04
2023-03-28T10:02:57.425Z,15.02
2023-03-28T10:05:41.242Z,15.02
2023-03-28T10:08:40.627Z,15.01
2023-03-28T10:11:19.085Z,15.00
2023-03-28T10:13:51.390Z,15.00
2023-03-28T10:16:27.849Z,14.98
2023-03-28T10:18:55.487Z,14.98
2023-03-28T10:21:26.916Z,14.96
2023-03-28T10:24:02.253Z,14.95
2023-03-28T10:26:29.853Z,14.93
2023-03-28T10:29:03.806Z,14.90
2023-03-28T10:31:34.331Z,14.89
2023-03-28T10:34:05.061Z,14.88
2023-03-28T10:36:41.673Z,14.85
2023-03-28T10:39:31.558Z,14.84
2023-03-28T10:42:00.322Z,14.81
2023-03-28T10:44:32.417Z,14.80
2023-03-28T10:47:06.076Z,14.79
2023-03-28T10:50:02.670Z,14.79
2023-03-28T10:52:39.000Z,14.77
2023-03-28T10:55:20.780Z,14.74
2023-03-28T10:58:18.411Z,14.75
2023-03-28T11:00:51.719Z,14.74
2023-03-28T11:03:50.913Z,14.75
2023-03-28T11:06:27.080Z,14.74
2023-03-28T11:09:10.320Z,14.72
2023-03-28T11:11:45.014Z,14.71
2023-03-28T11:14:15.300Z,14.70
2023-03-28T11:17:26.871Z,14.70
2023-03-28T11:20:17.904Z,14.70
2023-03-28T11:23:06.606Z,14.70
2023-03-28T11:25:36.966Z,14.70
2023-03-28T11:28:27.209Z,14.69
2023-03-28T11:30:56.566Z,14.68
2023-03-28T11:33:23.534Z,14.68
2023-03-28T11:35:57.445Z,14.68
2023-03-28T11:38:31.801Z,14.66
2023-03-28T11:41:01.680Z,14.67
2023-03-28T11:43:49.187Z,14.66
2023-03-28T11:46:39.714Z,14.65
2023-03-28T11:49:09.954Z,14.64
2023-03-28T11:51:41.794Z,14.65
2023-03-28T11:54:21.830Z,14.64
2023-03-28T11:57:12.363Z,14.62
2023-03-28T11:59:53.355Z,14.66
2023-03-28T12:02:23.927Z,14.58
2023-03-28T12:04:57.860Z,14.68
2023-03-28T12:07:41.444Z,14.70
2023-03-28T12:10:18.832Z,14.67
2023-03-28T12:12:51.716Z,14.66
2023-03-28T12:15:22.847Z,14.63
2023-03-28T12:17:52.830Z,14.64
2023-03-28T12:20:44.261Z,14.64
2023-03-28T12:23:38.273Z,14.66
2023-03-28T12:26:14.632Z,14.75
2023-03-28T12:28:44.378Z,14.77
2023-03-28T12:31:31.543Z,14.83
2023-03-28T12:34:01.558Z,14.79
2023-03-28T12:36:49.526Z,14.73
2023-03-28T12:39:35.028Z,14.76
2023-03-28T12:42:06.954Z,14.72
2023-03-28T12:44:54.989Z,14.75
2023-03-28T12:47:45.196Z,14.84
2023-03-28T12:50:15.399Z,14.77
2023-03-28T12:52:44.552Z,14.79
2023-03-28T12:55:26.889Z,14.80
2023-03-28T12:57:55.120Z,14.78
2023-03-28T13:00:28.428Z,14.63
2023-03-28T13:03:07.328Z,14.64
2023-03-28T13:05:52.790Z,14.55
2023-03-28T13:08:39.957Z,14.67
2023-03-28T13:11:17.157Z,14.66
2023-03-28T13:13:44.263Z,14.75
2023-03-28T13:16:15.906Z,14.69
2023-03-28T13:18:47.789Z,14.70
2023-03-28T13:21:34.744Z,14.69
2023-03-28T13:24:02.768Z,14.69
2023-03-28T13:26:49.815Z,14.71
2023-03-28T13:29:16.767Z,14.74
2023-03-28T13:31:44.285Z,14.77
2023-03-28T13:34:18.925Z,14.73
2023-03-28T13:36:55.561Z,14.84
2023-03-28T13:39:24.179Z,14.87
2023-03-28T13:41:55.976Z,14.88
2023-03-28T13:44:34.383Z,14.85
2023-03-28T13:47:02.010Z,14.91
2023-03-28T13:49:29.376Z,14.86
2023-03-28T13:51:56.591Z,14.87
2023-03-28T13:54:24.449Z,14.85
2023-03-28T13:56:53.036Z,14.88
2023-03-28T13:59:26.774Z,14.93
2023-03-28T14:01:55.004Z,14.91
2023-03-28T14:04:24.383Z,14.95
2023-03-28T14:06:53.371Z,14.97
2023-03-28T14:09:29.424Z,15.00
2023-03-28T14:11:59.307Z,14.99
2023-03-28T14:14:30.651Z,15.00
2023-03-28T14:16:57.900Z,15.02
2023-03-28T14:19:33.488Z,15.05
2023-03-28T14:22:00.418Z,15.12
2023-03-28T14:24:27.492Z,15.15
2023-03-28T14:27:05.786Z,15.18
2023-03-28T14:29:32.708Z,15.18
2023-03-28T14:31:59.669Z,15.27
2023-03-28T14:34:30.771Z,15.30
2023-03-28T14:37:01.398Z,15.28
2023-03-28T14:39:30.186Z,15.32
2023-03-28T14:41:58.648Z,15.35
2023-03-28T14:44:26.315Z,15.34
2023-03-28T14:46:57.020Z,15.44
2023-03-28T14:49:24.977Z,15.53
2023-03-28T14:51:59.621Z,15.61
2023-03-28T14:54:35.324Z,15.67
2023-03-28T14:57:04.426Z,15.72
2023-03-28T14:59:37.219Z,15.80
2023-03-28T15:02:05.293Z,15.85
2023-03-28T15:04:32.623Z,15.90
2023-03-28T15:06:59.769Z,15.94
2023-03-28T15:09:33.584Z,15.98
2023-03-28T15:12:05.790Z,16.06
2023-03-28T15:14:40.109Z,16.20
2023-03-28T15:17:07.613Z,16.25
2023-03-28T15:19:40.456Z,16.25
2023-03-28T15:22:15.302Z,16.28
2023-03-28T15:24:42.526Z,16.34
2023-03-28T15:27:18.373Z,16.27
2023-03-28T15:29:45.724Z,16.26
2023-03-28T15:32:16.087Z,16.29
2023-03-28T15:35:03.630Z,16.28
2023-03-28T15:37:40.466Z,16.35
2023-03-28T15:40:29.165Z,16.30
2023-03-28T15:42:56.965Z,16.25
2023-03-28T15:45:37.743Z,16.27
2023-03-28T15:48:05.073Z,16.17
2023-03-28T15:50:35.028Z,16.21
2023-03-28T15:53:05.290Z,16.31
2023-03-28T15:55:33.286Z,16.33
2023-03-28T15:58:00.387Z,16.39
2023-03-28T16:00:42.513Z,16.43
2023-03-28T16:03:26.362Z,16.50
2023-03-28T16:06:09.674Z,16.62
2023-03-28T16:08:39.458Z,16.69
2023-03-28T16:11:08.205Z,16.71
2023-03-28T16:13:35.209Z,16.75
2023-03-28T16:16:04.428Z,16.78
2023-03-28T16:18:31.582Z,16.83
2023-03-28T16:20:58.531Z,16.87
2023-03-28T16:23:26.103Z,16.94
2023-03-28T16:25:53.115Z,16.95
2023-03-28T16:28:20.506Z,16.98
2023-03-28T16:30:47.626Z,16.99
2023-03-28T16:33:14.542Z,17.05
2023-03-28T16:35:41.631Z,17.07
2023-03-28T16:38:10.629Z,17.13
2023-03-28T16:40:37.828Z,17.16
2023-03-28T16:43:04.772Z,17.24
2023-03-28T16:45:31.920Z,17.24
2023-03-28T16:47:58.937Z,17.27
2023-03-28T16:50:25.872Z,17.29
2023-03-28T16:52:53.042Z,17.30
2023-03-28T16:55:19.885Z,17.34
2023-03-28T16:57:47.014Z,17.35
2023-03-28T17:00:18.406Z,17.35
2023-03-28T17:02:47.562Z,17.37
2023-03-28T17:05:15.404Z,17.44
2023-03-28T17:07:42.327Z,17.45
2023-03-28T17:10:09.642Z,17.47
2023-03-28T17:12:36.627Z,17.48
2023-03-28T17:15:03.686Z,17.44
2023-03-28T17:17:31.059Z,17.45
2023-03-28T17:19:58.188Z,17.42
2023-03-28T17:22:25.938Z,17.34
2023-03-28T17:24:55.936Z,17.40
2023-03-28T17:27:23.773Z,17.42
2023-03-28T17:29:51.765Z,17.44
2023-03-28T17:32:19.284Z,17.39
2023-03-28T17:34:46.864Z,17.39
2023-03-28T17:37:14.207Z,17.47
2023-03-28T17:39:41.389Z,17.50
2023-03-28T17:42:09.593Z,17.47
2023-03-28T17:44:36.610Z,17.51
2023-03-28T17:47:04.714Z,17.52
2023-03-28T17:49:31.726Z,17.53
2023-03-28T17:51:58.781Z,17.56
2023-03-28T17:54:26.652Z,17.57
2023-03-28T17:56:54.361Z,17.58
2023-03-28T17:59:25.694Z,17.68
2023-03-28T18:01:53.200Z,17.69
2023-03-28T18:04:20.317Z,17.83
2023-03-28T18:06:47.276Z,17.89
2023-03-28T18:09:14.375Z,17.91
2023-03-28T18:11:41.980Z,17.97
2023-03-28T18:14:09.010Z,18.05
2023-03-28T18:16:36.637Z,18.01
2023-03-28T18:19:03.888Z,18.04
2023-03-28T18:21:30.981Z,18.09
2023-03-28T18:23:57.895Z,18.11
2023-03-28T18:26:25.221Z,18.07
2023-03-28T18:28:52.551Z,18.12
2023-03-28T18:31:24.716Z,18.20
2023-03-28T18:33:53.851Z,18.22
2023-03-28T18:36:21.181Z,18.26
2023-03-28T18:38:48.330Z,18.31
2023-03-28T18:41:15.739Z,18.35
2023-03-28T18:43:43.220Z,18.37
2023-03-28T18:46:15.662Z,18.44
2023-03-28T18:48:43.554Z,18.52
2023-03-28T18:51:10.782Z,18.51
2023-03-28T18:53:40.945Z,18.52
2023-03-28T18:56:08.613Z,18.57
2023-03-28T18:58:37.567Z,18.55
2023-03-28T19:01:05.346Z,18.54
2023-03-28T19:03:35.145Z,18.63
2023-03-28T19:06:02.930Z,18.58
2023-03-28T19:08:31.523Z,18.63
2023-03-28T19:11:00.548Z,18.71
2023-03-28T19:13:29.977Z,18.82
2023-03-28T19:16:01.990Z,18.82
2023-03-28T19:18:29.370Z,18.81
2023-03-28T19:20:56.804Z,18.81
2023-03-28T19:23:24.117Z,18.83
2023-03-28T19:25:51.362Z,18.83
2023-03-28T19:28:18.829Z,18.84
2023-03-28T19:30:46.274Z,18.84
2023-03-28T19:33:13.408Z,18.82
2023-03-28T19:35:41.142Z,18.83
2023-03-28T19:38:08.676Z,18.84
2023-03-28T19:40:36.259Z,18.82
2023-03-28T19:43:06.231Z,18.78
2023-03-28T19:45:36.761Z,18.80
2023-03-28T19:48:03.887Z,18.79
2023-03-28T19:50:33.990Z,18.86
2023-03-28T19:53:01.458Z,18.80
2023-03-28T19:55:28.693Z,18.82
2023-03-28T19:57:57.932Z,18.73
2023-03-28T20:00:24.918Z,18.77
2023-03-28T20:02:52.103Z,18.75
2023-03-28T20:05:19.768Z,18.73
2023-03-28T20:07:47.147Z,18.76
2023-03-28T20:10:14.213Z,18.74
2023-03-28T20:12:41.624Z,18.71
2023-03-28T20:15:10.780Z,18.69
2023-03-28T20:17:39.388Z,18.65
2023-03-28T20:20:07.593Z,18.67
2023-03-28T20:22:36.157Z,18.69
2023-03-28T20:25:03.227Z,18.71
2023-03-28T20:27:32.440Z,18.72
2023-03-28T20:29:59.712Z,18.71
2023-03-28T20:32:27.571Z,18.74
2023-03-28T20:34:54.896Z,18.78
2023-03-28T20:37:24.045Z,18.81
2023-03-28T20:39:52.544Z,18.80
2023-03-28T20:42:20.935Z,18.80
2023-03-28T20:44:48.288Z,18.83
2023-03-28T20:47:23.088Z,18.83
2023-03-28T20:49:55.446Z,18.80
2023-03-28T20:52:22.827Z,18.84
2023-03-28T20:54:50.676Z,18.86
2023-03-28T20:57:18.413Z,18.87
2023-03-28T20:59:46.014Z,18.89
2023-03-28T21:02:13.616Z,18.88
2023-03-28T21:04:40.943Z,18.90
2023-03-28T21:07:08.398Z,18.90
2023-03-28T21:09:35.409Z,18.89
2023-03-28T21:12:02.844Z,18.89
2023-03-28T21:14:32.064Z,18.91
2023-03-28T21:17:00.677Z,18.88
2023-03-28T21:19:28.137Z,18.88
2023-03-28T21:21:56.941Z,18.87
2023-03-28T21:24:24.062Z,18.89
2023-03-28T21:26:51.071Z,18.89
2023-03-28T21:29:18.109Z,18.94
2023-03-28T21:31:45.153Z,18.86
2023-03-28T21:34:12.482Z,18.87
2023-03-28T21:36:39.622Z,18.70
2023-03-28T21:39:06.514Z,18.68
2023-03-28T21:41:37.392Z,18.64
2023-03-28T21:44:04.319Z,18.62
2023-03-28T21:46:31.652Z,18.60
2023-03-28T21:48:58.564Z,18.59
2023-03-28T21:51:26.307Z,18.57
2023-03-28T21:53:53.363Z,18.56
2023-03-28T21:56:20.201Z,18.54
2023-03-28T21:58:47.629Z,18.52
2023-03-28T22:01:15.298Z,18.53
2023-03-28T22:03:42.706Z,18.54
2023-03-28T22:06:10.012Z,18.48
2023-03-28T22:08:37.272Z,18.29
2023-03-28T22:11:11.383Z,18.20
2023-03-28T22:13:39.221Z,18.17
2023-03-28T22:16:06.780Z,18.19
2023-03-28T22:18:34.354Z,18.07
2023-03-28T22:21:03.005Z,17.98
2023-03-28T22:23:30.262Z,18.04
2023-03-28T22:25:58.866Z,18.08
2023-03-28T22:28:25.888Z,17.77
2023-03-28T22:30:57.132Z,17.59
2023-03-28T22:33:25.768Z,17.46
2023-03-28T22:35:53.451Z,17.41
2023-03-28T22:38:20.516Z,17.32
2023-03-28T22:40:47.885Z,17.25
2023-03-28T22:43:15.519Z,17.15
2023-03-28T22:45:43.280Z,17.09
2023-03-28T22:48:16.210Z,17.05
2023-03-28T22:50:46.620Z,16.98
2023-03-28T22:53:15.042Z,16.94
2023-03-28T22:55:45.247Z,16.89
2023-03-28T22:58:12.231Z,16.84
2023-03-28T23:00:39.394Z,16.77
2023-03-28T23:03:08.444Z,16.72
2023-03-28T23:05:35.812Z,16.70
2023-03-28T23:08:02.878Z,16.65
2023-03-28T23:10:29.882Z,16.63
2023-03-28T23:12:56.829Z,16.61
2023-03-28T23:15:23.757Z,16.58
2023-03-28T23:17:51.254Z,16.50
2023-03-28T23:20:19.552Z,16.47
2023-03-28T23:22:47.647Z,16.44
2023-03-28T23:25:15.899Z,16.40
2023-03-28T23:27:43.620Z,16.36
2023-03-28T23:30:12.684Z,16.32
2023-03-28T23:32:39.803Z,16.31
2023-03-28T23:35:07.116Z,16.27
2023-03-28T23:37:34.759Z,16.26
2023-03-28T23:40:01.598Z,16.24
2023-03-28T23:42:28.407Z,16.22
2023-03-28T23:44:55.201Z,16.19
2023-03-28T23:47:22.239Z,16.17
2023-03-28T23:49:49.036Z,16.15
2023-03-28T23:52:16.546Z,16.12
2023-03-28T23:54:43.637Z,16.10
2023-03-28T23:57:10.637Z,16.08
2023-03-28T23:59:37.594Z,16.04
